Desoto Tide — YJVN7 — position and weather

sailwx.info

Track history (hours):
 
Tides and Currents Weather Stations Pressure Air Temp Water Temp Dewpoint Dewpoint Depression Visibility Wind Speed Wind Dir Waves Ship Positions

Desoto Tide

Last reported at 2017-Sep-20 05:56 UTC. Time now 2017-Sep-20 23:41 UTC.
Position N 04°27' W 003°19'.

Length 73 m; draft 4.9 m.

Type: Other ship. MMSI: 576504000.

Date/timePositionNaut miles runAvg speedWind from/ knotsBaromVisibWave heightAir tempDewpointWater temp
2017-Sep-20 05:56N 04°27' W 003°19'0 0.1
2017-Sep-20 04:43N 04°27' W 003°19'1 0.0
2017-Sep-18 23:19N 04°27' W 003°19'0 0.2
2017-Sep-18 21:29N 04°27' W 003°19'  
2017-Sep-15 22:03N 04°27' W 003°19'0 0.0
2017-Sep-15 21:57N 04°27' W 003°19'0 0.1
2017-Sep-15 21:15N 04°27' W 003°19'0 0.1
2017-Sep-15 20:51N 04°27' W 003°19'30 0.7
2017-Sep-14 02:47N 04°49' W 003°39'20 7.6
2017-Sep-14 00:14N 04°35' W 003°26'2 8.1
2017-Sep-14 00:00N 04°33' W 003°25'4 7.1
2017-Sep-13 23:27N 04°30' W 003°22'4 7.8
2017-Sep-13 22:54N 04°27' W 003°19'1 1.4
2017-Sep-13 22:27N 04°27' W 003°19'0 0.0
2017-Sep-13 21:53N 04°27' W 003°19'0 0.0
2017-Sep-13 21:25N 04°27' W 003°19'0 0.0
2017-Sep-12 19:45N 04°27' W 003°19'0 0.3
2017-Sep-12 18:26N 04°27' W 003°19'0 0.0
2017-Sep-12 18:00N 04°27' W 003°19'  
Track history (hours):
 
Tides and Currents Weather Stations Pressure Air Temp Water Temp Dewpoint Dewpoint Depression Visibility Wind Speed Wind Dir Waves Ship Positions

Desoto Tide

Last reported at 2017-Sep-20 05:56 UTC. Time now 2017-Sep-20 23:41 UTC.
Position N 04°27' W 003°19'.

Length 73 m; draft 4.9 m.

Type: Other ship. MMSI: 576504000.

Date/timePositionNaut miles runAvg speedWind from/ knotsBaromVisibWave heightAir tempDewpointWater temp
2017-Sep-20 05:56N 04°27' W 003°19'0 0.1
2017-Sep-20 04:43N 04°27' W 003°19'1 0.0
2017-Sep-18 23:19N 04°27' W 003°19'0 0.2
2017-Sep-18 21:29N 04°27' W 003°19'  
2017-Sep-15 22:03N 04°27' W 003°19'0 0.0
2017-Sep-15 21:57N 04°27' W 003°19'0 0.1
2017-Sep-15 21:15N 04°27' W 003°19'0 0.1
2017-Sep-15 20:51N 04°27' W 003°19'30 0.7
2017-Sep-14 02:47N 04°49' W 003°39'20 7.6
2017-Sep-14 00:14N 04°35' W 003°26'2 8.1
2017-Sep-14 00:00N 04°33' W 003°25'4 7.1
2017-Sep-13 23:27N 04°30' W 003°22'4 7.8
2017-Sep-13 22:54N 04°27' W 003°19'1 1.4
2017-Sep-13 22:27N 04°27' W 003°19'0 0.0
2017-Sep-13 21:53N 04°27' W 003°19'0 0.0
2017-Sep-13 21:25N 04°27' W 003°19'0 0.0
2017-Sep-12 19:45N 04°27' W 003°19'0 0.3
2017-Sep-12 18:26N 04°27' W 003°19'0 0.0
2017-Sep-12 18:00N 04°27' W 003°19'  

Dump ship's entire track history